sensor_id;sensor_type;location;lat;lon;timestamp;pressure;altitude;pressure_sealevel;temperature;humidity
14393;BME280;7281;42.678;23.372;2023-04-05T00:02:08;94647.63;;;4.90;53.17
14393;BME280;7281;42.678;23.372;2023-04-05T00:04:36;94638.03;;;4.79;53.34
14393;BME280;7281;42.678;23.372;2023-04-05T00:07:04;94642.31;;;5.08;53.18
14393;BME280;7281;42.678;23.372;2023-04-05T00:09:33;94632.59;;;5.04;52.81
14393;BME280;7281;42.678;23.372;2023-04-05T00:12:00;94630.56;;;5.18;52.27
14393;BME280;7281;42.678;23.372;2023-04-05T00:14:27;94636.66;;;4.65;53.66
14393;BME280;7281;42.678;23.372;2023-04-05T00:16:53;94639.63;;;4.69;53.80
14393;BME280;7281;42.678;23.372;2023-04-05T00:19:20;94631.03;;;4.68;54.04
14393;BME280;7281;42.678;23.372;2023-04-05T00:21:48;94633.28;;;4.76;53.34
14393;BME280;7281;42.678;23.372;2023-04-05T00:24:15;94630.94;;;4.63;53.61
14393;BME280;7281;42.678;23.372;2023-04-05T00:26:42;94637.94;;;4.10;55.02
14393;BME280;7281;42.678;23.372;2023-04-05T00:29:12;94637.59;;;4.59;54.52
14393;BME280;7281;42.678;23.372;2023-04-05T00:31:38;94637.81;;;4.69;53.53
14393;BME280;7281;42.678;23.372;2023-04-05T00:34:05;94640.25;;;4.30;54.28
14393;BME280;7281;42.678;23.372;2023-04-05T00:36:34;94644.00;;;4.45;53.90
14393;BME280;7281;42.678;23.372;2023-04-05T00:39:01;94647.94;;;4.48;53.92
14393;BME280;7281;42.678;23.372;2023-04-05T00:41:28;94650.34;;;4.08;54.17
14393;BME280;7281;42.678;23.372;2023-04-05T00:43:55;94647.91;;;4.36;54.65
14393;BME280;7281;42.678;23.372;2023-04-05T00:46:22;94640.28;;;4.64;53.20
14393;BME280;7281;42.678;23.372;2023-04-05T00:48:49;94651.56;;;4.58;53.46
14393;BME280;7281;42.678;23.372;2023-04-05T00:51:16;94646.34;;;4.35;53.64
14393;BME280;7281;42.678;23.372;2023-04-05T00:53:45;94647.78;;;4.20;53.93
14393;BME280;7281;42.678;23.372;2023-04-05T00:56:13;94652.78;;;4.44;53.86
14393;BME280;7281;42.678;23.372;2023-04-05T00:58:40;94657.41;;;4.42;53.61
14393;BME280;7281;42.678;23.372;2023-04-05T01:03:44;94647.50;;;4.62;53.20
14393;BME280;7281;42.678;23.372;2023-04-05T01:06:16;94646.13;;;4.48;53.55
14393;BME280;7281;42.678;23.372;2023-04-05T01:08:50;94655.75;;;4.18;53.97
14393;BME280;7281;42.678;23.372;2023-04-05T01:11:17;94655.84;;;4.41;53.44
14393;BME280;7281;42.678;23.372;2023-04-05T01:13:45;94653.81;;;4.02;54.42
14393;BME280;7281;42.678;23.372;2023-04-05T01:16:12;94654.00;;;4.30;53.64
14393;BME280;7281;42.678;23.372;2023-04-05T01:18:39;94651.06;;;4.38;53.89
14393;BME280;7281;42.678;23.372;2023-04-05T01:27:00;94651.59;;;4.81;51.88
14393;BME280;7281;42.678;23.372;2023-04-05T01:29:44;94653.81;;;4.66;52.37
14393;BME280;7281;42.678;23.372;2023-04-05T01:34:51;94652.94;;;4.72;52.38
14393;BME280;7281;42.678;23.372;2023-04-05T01:37:19;94664.59;;;4.40;53.30
14393;BME280;7281;42.678;23.372;2023-04-05T01:39:49;94660.47;;;4.62;52.17
14393;BME280;7281;42.678;23.372;2023-04-05T01:42:21;94663.06;;;4.62;52.63
14393;BME280;7281;42.678;23.372;2023-04-05T01:44:50;94656.09;;;4.97;51.85
14393;BME280;7281;42.678;23.372;2023-04-05T01:47:17;94644.59;;;4.70;51.98
14393;BME280;7281;42.678;23.372;2023-04-05T01:49:44;94660.84;;;4.77;52.15
14393;BME280;7281;42.678;23.372;2023-04-05T01:52:10;94657.47;;;4.88;51.89
14393;BME280;7281;42.678;23.372;2023-04-05T01:54:37;94655.19;;;4.80;51.51
14393;BME280;7281;42.678;23.372;2023-04-05T01:57:04;94654.91;;;4.47;52.48
14393;BME280;7281;42.678;23.372;2023-04-05T01:59:31;94664.00;;;5.02;51.58
14393;BME280;7281;42.678;23.372;2023-04-05T02:01:58;94653.94;;;5.18;50.96
14393;BME280;7281;42.678;23.372;2023-04-05T02:04:26;94658.84;;;3.97;52.88
14393;BME280;7281;42.678;23.372;2023-04-05T02:06:53;94658.41;;;4.00;53.16
14393;BME280;7281;42.678;23.372;2023-04-05T02:09:19;94663.34;;;3.90;53.56
14393;BME280;7281;42.678;23.372;2023-04-05T02:11:46;94654.69;;;4.37;52.54
14393;BME280;7281;42.678;23.372;2023-04-05T02:14:13;94676.50;;;4.18;53.35
14393;BME280;7281;42.678;23.372;2023-04-05T02:16:40;94666.91;;;4.48;52.27
14393;BME280;7281;42.678;23.372;2023-04-05T02:19:07;94659.75;;;4.32;52.70
14393;BME280;7281;42.678;23.372;2023-04-05T02:21:33;94668.50;;;4.72;51.77
14393;BME280;7281;42.678;23.372;2023-04-05T02:24:02;94670.75;;;4.57;51.77
14393;BME280;7281;42.678;23.372;2023-04-05T02:26:29;94667.59;;;4.78;51.97
14393;BME280;7281;42.678;23.372;2023-04-05T02:28:56;94666.03;;;4.77;51.62
14393;BME280;7281;42.678;23.372;2023-04-05T02:31:22;94672.34;;;4.93;51.34
14393;BME280;7281;42.678;23.372;2023-04-05T02:33:50;94675.78;;;4.41;52.53
14393;BME280;7281;42.678;23.372;2023-04-05T02:36:16;94666.22;;;4.41;52.94
14393;BME280;7281;42.678;23.372;2023-04-05T02:38:44;94668.41;;;4.26;52.87
14393;BME280;7281;42.678;23.372;2023-04-05T02:41:10;94659.44;;;4.40;52.67
14393;BME280;7281;42.678;23.372;2023-04-05T02:43:37;94671.53;;;4.05;53.21
14393;BME280;7281;42.678;23.372;2023-04-05T02:46:04;94664.38;;;4.30;52.46
14393;BME280;7281;42.678;23.372;2023-04-05T02:48:35;94665.88;;;4.08;53.27
14393;BME280;7281;42.678;23.372;2023-04-05T02:51:03;94661.44;;;4.38;52.65
14393;BME280;7281;42.678;23.372;2023-04-05T02:53:30;94663.06;;;4.62;52.64
14393;BME280;7281;42.678;23.372;2023-04-05T02:56:00;94658.66;;;4.40;52.61
14393;BME280;7281;42.678;23.372;2023-04-05T02:58:28;94665.16;;;4.31;52.73
14393;BME280;7281;42.678;23.372;2023-04-05T03:00:55;94662.09;;;3.92;53.53
14393;BME280;7281;42.678;23.372;2023-04-05T03:03:28;94662.56;;;3.89;53.89
14393;BME280;7281;42.678;23.372;2023-04-05T03:05:56;94663.06;;;4.62;52.36
14393;BME280;7281;42.678;23.372;2023-04-05T03:08:26;94664.53;;;4.58;52.39
14393;BME280;7281;42.678;23.372;2023-04-05T03:11:02;94661.19;;;4.92;51.82
14393;BME280;7281;42.678;23.372;2023-04-05T03:13:29;94652.47;;;5.22;51.22
14393;BME280;7281;42.678;23.372;2023-04-05T03:15:56;94651.44;;;5.23;50.92
14393;BME280;7281;42.678;23.372;2023-04-05T03:18:25;94656.59;;;4.42;52.59
14393;BME280;7281;42.678;23.372;2023-04-05T03:21:01;94659.69;;;4.50;52.80
14393;BME280;7281;42.678;23.372;2023-04-05T03:23:33;94668.19;;;4.28;53.02
14393;BME280;7281;42.678;23.372;2023-04-05T03:26:03;94655.63;;;4.54;52.80
14393;BME280;7281;42.678;23.372;2023-04-05T03:28:34;94655.84;;;4.87;52.05
14393;BME280;7281;42.678;23.372;2023-04-05T03:31:04;94666.44;;;4.51;53.16
14393;BME280;7281;42.678;23.372;2023-04-05T03:33:32;94657.56;;;4.70;52.74
14393;BME280;7281;42.678;23.372;2023-04-05T03:35:58;94662.38;;;4.02;53.76
14393;BME280;7281;42.678;23.372;2023-04-05T03:38:29;94662.44;;;4.26;53.69
14393;BME280;7281;42.678;23.372;2023-04-05T03:41:09;94665.63;;;4.39;53.51
14393;BME280;7281;42.678;23.372;2023-04-05T03:43:36;94660.81;;;4.54;53.18
14393;BME280;7281;42.678;23.372;2023-04-05T03:46:04;94667.81;;;4.65;52.79
14393;BME280;7281;42.678;23.372;2023-04-05T03:48:31;94675.28;;;4.73;52.79
14393;BME280;7281;42.678;23.372;2023-04-05T03:50:57;94669.38;;;4.43;53.13
14393;BME280;7281;42.678;23.372;2023-04-05T03:53:24;94666.91;;;4.71;52.96
14393;BME280;7281;42.678;23.372;2023-04-05T03:55:54;94673.91;;;4.59;53.07
14393;BME280;7281;42.678;23.372;2023-04-05T03:58:42;94678.31;;;4.93;52.59
14393;BME280;7281;42.678;23.372;2023-04-05T04:01:11;94672.56;;;4.68;52.94
14393;BME280;7281;42.678;23.372;2023-04-05T04:03:37;94682.91;;;4.45;53.25
14393;BME280;7281;42.678;23.372;2023-04-05T04:06:05;94690.72;;;4.27;54.15
14393;BME280;7281;42.678;23.372;2023-04-05T04:08:32;94693.78;;;4.24;54.71
14393;BME280;7281;42.678;23.372;2023-04-05T04:10:59;94692.50;;;4.56;54.81
14393;BME280;7281;42.678;23.372;2023-04-05T04:13:32;94686.88;;;4.71;54.33
14393;BME280;7281;42.678;23.372;2023-04-05T04:16:10;94692.31;;;4.69;54.40
14393;BME280;7281;42.678;23.372;2023-04-05T04:18:53;94685.09;;;4.71;54.62
14393;BME280;7281;42.678;23.372;2023-04-05T04:21:19;94690.28;;;4.60;53.89
14393;BME280;7281;42.678;23.372;2023-04-05T04:24:16;94691.16;;;4.65;54.67
14393;BME280;7281;42.678;23.372;2023-04-05T04:27:11;94695.22;;;4.50;54.63
14393;BME280;7281;42.678;23.372;2023-04-05T04:29:56;94689.22;;;4.49;54.43
14393;BME280;7281;42.678;23.372;2023-04-05T04:33:02;94680.38;;;4.80;54.07
14393;BME280;7281;42.678;23.372;2023-04-05T04:35:53;94688.81;;;4.75;54.13
14393;BME280;7281;42.678;23.372;2023-04-05T04:38:42;94694.47;;;4.72;54.58
14393;BME280;7281;42.678;23.372;2023-04-05T04:41:10;94691.03;;;4.60;54.06
14393;BME280;7281;42.678;23.372;2023-04-05T04:43:39;94701.13;;;4.80;54.03
14393;BME280;7281;42.678;23.372;2023-04-05T04:46:32;94698.63;;;4.73;54.35
14393;BME280;7281;42.678;23.372;2023-04-05T04:49:14;94695.25;;;4.84;54.00
14393;BME280;7281;42.678;23.372;2023-04-05T04:51:46;94691.41;;;4.98;53.51
14393;BME280;7281;42.678;23.372;2023-04-05T04:54:14;94709.81;;;4.74;54.01
14393;BME280;7281;42.678;23.372;2023-04-05T04:56:46;94698.16;;;4.12;54.59
14393;BME280;7281;42.678;23.372;2023-04-05T04:59:13;94692.16;;;4.41;54.05
14393;BME280;7281;42.678;23.372;2023-04-05T05:01:43;94710.22;;;3.88;55.21
14393;BME280;7281;42.678;23.372;2023-04-05T05:04:10;94699.59;;;4.08;54.78
14393;BME280;7281;42.678;23.372;2023-04-05T05:06:39;94701.84;;;4.04;54.74
14393;BME280;7281;42.678;23.372;2023-04-05T05:09:05;94718.09;;;4.41;54.03
14393;BME280;7281;42.678;23.372;2023-04-05T05:11:38;94698.25;;;4.58;53.53
14393;BME280;7281;42.678;23.372;2023-04-05T05:14:07;94704.03;;;4.60;53.52
14393;BME280;7281;42.678;23.372;2023-04-05T05:16:34;94697.75;;;4.38;53.55
14393;BME280;7281;42.678;23.372;2023-04-05T05:19:01;94708.84;;;4.45;53.28
14393;BME280;7281;42.678;23.372;2023-04-05T05:21:40;94706.94;;;4.52;52.85
14393;BME280;7281;42.678;23.372;2023-04-05T05:24:06;94707.72;;;4.41;53.29
14393;BME280;7281;42.678;23.372;2023-04-05T05:26:35;94713.13;;;4.51;52.65
14393;BME280;7281;42.678;23.372;2023-04-05T05:29:03;94714.59;;;4.47;52.71
14393;BME280;7281;42.678;23.372;2023-04-05T05:31:33;94715.84;;;4.56;52.59
14393;BME280;7281;42.678;23.372;2023-04-05T05:34:00;94719.28;;;4.68;52.02
14393;BME280;7281;42.678;23.372;2023-04-05T05:36:27;94718.03;;;4.71;51.70
14393;BME280;7281;42.678;23.372;2023-04-05T05:38:53;94707.09;;;4.80;51.64
14393;BME280;7281;42.678;23.372;2023-04-05T05:41:20;94705.78;;;5.12;51.45
14393;BME280;7281;42.678;23.372;2023-04-05T05:43:47;94711.66;;;5.20;51.54
14393;BME280;7281;42.678;23.372;2023-04-05T05:46:14;94710.81;;;4.73;52.05
14393;BME280;7281;42.678;23.372;2023-04-05T05:48:41;94706.78;;;5.23;51.01
14393;BME280;7281;42.678;23.372;2023-04-05T05:51:08;94707.22;;;5.32;51.08
14393;BME280;7281;42.678;23.372;2023-04-05T05:53:38;94707.56;;;4.77;51.54
14393;BME280;7281;42.678;23.372;2023-04-05T05:56:05;94700.56;;;4.89;51.15
14393;BME280;7281;42.678;23.372;2023-04-05T05:58:31;94697.09;;;5.07;50.92
14393;BME280;7281;42.678;23.372;2023-04-05T06:00:58;94701.25;;;4.96;52.00
14393;BME280;7281;42.678;23.372;2023-04-05T06:03:25;94699.00;;;4.88;51.18
14393;BME280;7281;42.678;23.372;2023-04-05T06:05:53;94701.81;;;5.22;50.37
14393;BME280;7281;42.678;23.372;2023-04-05T06:08:21;94714.13;;;5.38;50.27
14393;BME280;7281;42.678;23.372;2023-04-05T06:10:48;94709.59;;;5.10;49.38
14393;BME280;7281;42.678;23.372;2023-04-05T06:13:15;94724.47;;;5.49;49.84
14393;BME280;7281;42.678;23.372;2023-04-05T06:15:42;94716.78;;;5.66;48.69
14393;BME280;7281;42.678;23.372;2023-04-05T06:18:09;94704.34;;;5.68;48.46
14393;BME280;7281;42.678;23.372;2023-04-05T06:20:35;94711.97;;;5.35;49.24
14393;BME280;7281;42.678;23.372;2023-04-05T06:23:06;94727.44;;;5.53;48.89
14393;BME280;7281;42.678;23.372;2023-04-05T06:25:33;94724.50;;;5.38;49.25
14393;BME280;7281;42.678;23.372;2023-04-05T06:28:02;94725.50;;;5.60;48.17
14393;BME280;7281;42.678;23.372;2023-04-05T06:30:29;94724.28;;;5.51;48.76
14393;BME280;7281;42.678;23.372;2023-04-05T06:32:56;94719.75;;;5.58;48.91
14393;BME280;7281;42.678;23.372;2023-04-05T06:35:23;94727.06;;;5.84;47.96
14393;BME280;7281;42.678;23.372;2023-04-05T06:37:51;94720.22;;;6.62;47.40
14393;BME280;7281;42.678;23.372;2023-04-05T06:40:18;94726.91;;;6.02;47.04
14393;BME280;7281;42.678;23.372;2023-04-05T06:42:44;94737.78;;;5.76;48.06
14393;BME280;7281;42.678;23.372;2023-04-05T06:45:15;94734.16;;;6.00;47.60
14393;BME280;7281;42.678;23.372;2023-04-05T06:47:44;94738.25;;;6.24;47.20
14393;BME280;7281;42.678;23.372;2023-04-05T06:50:11;94725.22;;;6.24;47.04
14393;BME280;7281;42.678;23.372;2023-04-05T06:52:38;94740.47;;;6.32;46.85
14393;BME280;7281;42.678;23.372;2023-04-05T06:55:04;94746.16;;;6.29;46.58
14393;BME280;7281;42.678;23.372;2023-04-05T06:57:31;94754.13;;;6.39;46.53
14393;BME280;7281;42.678;23.372;2023-04-05T06:59:58;94752.25;;;5.95;47.19
14393;BME280;7281;42.678;23.372;2023-04-05T07:02:25;94754.50;;;6.03;47.10
14393;BME280;7281;42.678;23.372;2023-04-05T07:04:51;94751.25;;;6.52;46.86
14393;BME280;7281;42.678;23.372;2023-04-05T07:07:19;94763.16;;;6.48;45.98
14393;BME280;7281;42.678;23.372;2023-04-05T07:09:46;94758.94;;;6.75;45.70
14393;BME280;7281;42.678;23.372;2023-04-05T07:12:12;94756.53;;;6.85;45.95
14393;BME280;7281;42.678;23.372;2023-04-05T07:14:39;94761.75;;;6.57;45.76
14393;BME280;7281;42.678;23.372;2023-04-05T07:17:06;94765.50;;;6.33;46.08
14393;BME280;7281;42.678;23.372;2023-04-05T07:19:33;94762.03;;;6.44;45.19
14393;BME280;7281;42.678;23.372;2023-04-05T07:21:59;94763.38;;;6.47;45.87
14393;BME280;7281;42.678;23.372;2023-04-05T07:24:26;94766.53;;;6.93;45.38
14393;BME280;7281;42.678;23.372;2023-04-05T07:26:53;94772.22;;;6.90;45.06
14393;BME280;7281;42.678;23.372;2023-04-05T07:29:20;94767.72;;;6.69;44.79
14393;BME280;7281;42.678;23.372;2023-04-05T07:31:46;94773.75;;;6.58;45.59
14393;BME280;7281;42.678;23.372;2023-04-05T07:34:13;94772.34;;;6.11;45.84
14393;BME280;7281;42.678;23.372;2023-04-05T07:36:40;94785.94;;;6.69;44.94
14393;BME280;7281;42.678;23.372;2023-04-05T07:39:07;94761.94;;;6.67;45.07
14393;BME280;7281;42.678;23.372;2023-04-05T07:41:33;94784.44;;;6.90;44.62
14393;BME280;7281;42.678;23.372;2023-04-05T07:44:03;94778.84;;;6.81;44.73
14393;BME280;7281;42.678;23.372;2023-04-05T07:46:30;94784.06;;;6.25;44.41
14393;BME280;7281;42.678;23.372;2023-04-05T07:48:57;94790.25;;;6.36;44.50
14393;BME280;7281;42.678;23.372;2023-04-05T07:51:23;94796.22;;;5.73;46.00
14393;BME280;7281;42.678;23.372;2023-04-05T07:53:50;94797.69;;;6.04;45.30
14393;BME280;7281;42.678;23.372;2023-04-05T07:56:17;94798.28;;;5.83;45.34
14393;BME280;7281;42.678;23.372;2023-04-05T07:58:43;94800.97;;;5.99;44.89
14393;BME280;7281;42.678;23.372;2023-04-05T08:01:11;94799.59;;;6.20;44.86
14393;BME280;7281;42.678;23.372;2023-04-05T08:03:37;94808.78;;;5.76;45.28
14393;BME280;7281;42.678;23.372;2023-04-05T08:06:09;94809.69;;;6.05;45.77
14393;BME280;7281;42.678;23.372;2023-04-05T08:08:37;94810.81;;;5.63;46.03
14393;BME280;7281;42.678;23.372;2023-04-05T08:11:03;94814.19;;;5.52;46.26
14393;BME280;7281;42.678;23.372;2023-04-05T08:13:30;94813.09;;;5.71;45.82
14393;BME280;7281;42.678;23.372;2023-04-05T08:15:59;94810.13;;;5.79;46.32
14393;BME280;7281;42.678;23.372;2023-04-05T08:18:27;94811.50;;;5.93;46.21
14393;BME280;7281;42.678;23.372;2023-04-05T08:20:54;94814.56;;;5.90;46.26
14393;BME280;7281;42.678;23.372;2023-04-05T08:23:21;94828.19;;;6.20;45.78
14393;BME280;7281;42.678;23.372;2023-04-05T08:25:48;94822.69;;;5.93;45.53
14393;BME280;7281;42.678;23.372;2023-04-05T08:28:15;94806.97;;;5.88;45.83
14393;BME280;7281;42.678;23.372;2023-04-05T08:30:41;94831.50;;;5.81;45.51
14393;BME280;7281;42.678;23.372;2023-04-05T08:33:09;94818.44;;;6.27;44.99
14393;BME280;7281;42.678;23.372;2023-04-05T08:35:35;94815.22;;;6.48;45.03
14393;BME280;7281;42.678;23.372;2023-04-05T08:38:03;94822.34;;;6.53;45.46
14393;BME280;7281;42.678;23.372;2023-04-05T08:40:38;94830.09;;;6.64;45.13
14393;BME280;7281;42.678;23.372;2023-04-05T08:45:53;94829.25;;;6.47;45.09
14393;BME280;7281;42.678;23.372;2023-04-05T08:48:23;94831.38;;;6.50;44.94
14393;BME280;7281;42.678;23.372;2023-04-05T08:50:50;94828.69;;;6.73;45.09
14393;BME280;7281;42.678;23.372;2023-04-05T08:53:21;94837.16;;;6.52;44.98
14393;BME280;7281;42.678;23.372;2023-04-05T08:55:48;94833.16;;;6.89;44.87
14393;BME280;7281;42.678;23.372;2023-04-05T08:58:17;94832.41;;;7.05;44.70
14393;BME280;7281;42.678;23.372;2023-04-05T09:00:46;94838.19;;;7.07;45.17
14393;BME280;7281;42.678;23.372;2023-04-05T09:03:14;94849.13;;;6.93;44.81
14393;BME280;7281;42.678;23.372;2023-04-05T09:05:43;94848.19;;;7.15;44.59
14393;BME280;7281;42.678;23.372;2023-04-05T09:08:11;94849.38;;;7.08;44.85
14393;BME280;7281;42.678;23.372;2023-04-05T09:10:38;94857.16;;;6.91;45.56
14393;BME280;7281;42.678;23.372;2023-04-05T09:13:05;94849.25;;;6.86;45.43
14393;BME280;7281;42.678;23.372;2023-04-05T09:15:36;94861.00;;;6.61;45.59
14393;BME280;7281;42.678;23.372;2023-04-05T09:18:03;94856.38;;;6.91;45.02
14393;BME280;7281;42.678;23.372;2023-04-05T09:20:44;94854.38;;;7.09;45.27
14393;BME280;7281;42.678;23.372;2023-04-05T09:23:11;94846.81;;;6.68;45.59
14393;BME280;7281;42.678;23.372;2023-04-05T09:25:39;94846.91;;;7.01;45.56
14393;BME280;7281;42.678;23.372;2023-04-05T09:28:08;94853.53;;;6.92;45.24
14393;BME280;7281;42.678;23.372;2023-04-05T09:30:35;94852.09;;;6.85;44.28
14393;BME280;7281;42.678;23.372;2023-04-05T09:33:06;94838.41;;;7.06;43.71
14393;BME280;7281;42.678;23.372;2023-04-05T09:35:35;94842.00;;;6.88;44.60
14393;BME280;7281;42.678;23.372;2023-04-05T09:38:02;94846.56;;;6.81;43.88
14393;BME280;7281;42.678;23.372;2023-04-05T09:40:42;94841.03;;;6.78;44.50
14393;BME280;7281;42.678;23.372;2023-04-05T09:43:12;94837.56;;;7.17;43.65
14393;BME280;7281;42.678;23.372;2023-04-05T09:45:40;94835.13;;;7.27;43.07
14393;BME280;7281;42.678;23.372;2023-04-05T09:48:07;94835.50;;;7.36;43.45
14393;BME280;7281;42.678;23.372;2023-04-05T09:50:34;94831.13;;;7.91;43.12
14393;BME280;7281;42.678;23.372;2023-04-05T09:53:06;94829.59;;;7.40;42.77
14393;BME280;7281;42.678;23.372;2023-04-05T09:55:33;94829.59;;;7.57;43.30
14393;BME280;7281;42.678;23.372;2023-04-05T09:58:00;94828.88;;;7.45;43.36
14393;BME280;7281;42.678;23.372;2023-04-05T10:00:27;94828.00;;;7.56;42.94
14393;BME280;7281;42.678;23.372;2023-04-05T10:02:54;94825.56;;;8.04;42.14
14393;BME280;7281;42.678;23.372;2023-04-05T10:05:27;94828.91;;;7.83;41.47
14393;BME280;7281;42.678;23.372;2023-04-05T10:07:55;94827.91;;;8.22;41.78
14393;BME280;7281;42.678;23.372;2023-04-05T10:10:22;94830.91;;;7.59;41.45
14393;BME280;7281;42.678;23.372;2023-04-05T10:12:49;94829.59;;;7.57;41.49
14393;BME280;7281;42.678;23.372;2023-04-05T10:15:16;94841.06;;;7.94;41.97
14393;BME280;7281;42.678;23.372;2023-04-05T10:17:51;94842.59;;;7.90;40.78
14393;BME280;7281;42.678;23.372;2023-04-05T10:20:20;94841.53;;;8.24;39.90
14393;BME280;7281;42.678;23.372;2023-04-05T10:25:22;94839.94;;;8.66;39.59
14393;BME280;7281;42.678;23.372;2023-04-05T10:27:54;94835.09;;;8.53;38.61
14393;BME280;7281;42.678;23.372;2023-04-05T10:30:24;94827.41;;;7.87;40.01
14393;BME280;7281;42.678;23.372;2023-04-05T10:33:07;94840.56;;;8.30;39.16
14393;BME280;7281;42.678;23.372;2023-04-05T10:35:42;94831.81;;;8.41;39.57
14393;BME280;7281;42.678;23.372;2023-04-05T10:38:24;94835.19;;;8.63;38.76
14393;BME280;7281;42.678;23.372;2023-04-05T10:43:48;94833.50;;;8.74;38.72
14393;BME280;7281;42.678;23.372;2023-04-05T10:46:20;94823.09;;;9.05;38.79
14393;BME280;7281;42.678;23.372;2023-04-05T10:51:17;94825.50;;;8.37;38.58
14393;BME280;7281;42.678;23.372;2023-04-05T10:53:44;94845.50;;;8.10;39.61
14393;BME280;7281;42.678;23.372;2023-04-05T10:56:14;94837.13;;;8.08;39.61
14393;BME280;7281;42.678;23.372;2023-04-05T10:58:42;94844.50;;;8.16;39.91
14393;BME280;7281;42.678;23.372;2023-04-05T11:01:09;94847.84;;;8.71;38.87
14393;BME280;7281;42.678;23.372;2023-04-05T11:08:43;94848.09;;;8.48;38.69
14393;BME280;7281;42.678;23.372;2023-04-05T11:11:12;94854.47;;;9.05;38.96
14393;BME280;7281;42.678;23.372;2023-04-05T11:13:48;94846.22;;;9.18;37.74
14393;BME280;7281;42.678;23.372;2023-04-05T11:16:15;94840.47;;;9.16;36.75
14393;BME280;7281;42.678;23.372;2023-04-05T11:18:45;94845.06;;;9.36;36.95
14393;BME280;7281;42.678;23.372;2023-04-05T11:21:23;94841.25;;;9.17;36.96
14393;BME280;7281;42.678;23.372;2023-04-05T11:24:03;94839.91;;;9.41;36.98
14393;BME280;7281;42.678;23.372;2023-04-05T11:26:32;94838.50;;;10.02;36.59
14393;BME280;7281;42.678;23.372;2023-04-05T11:28:59;94830.41;;;10.55;36.23
14393;BME280;7281;42.678;23.372;2023-04-05T11:31:26;94828.81;;;10.44;35.74
14393;BME280;7281;42.678;23.372;2023-04-05T11:33:53;94846.31;;;9.97;36.10
14393;BME280;7281;42.678;23.372;2023-04-05T11:36:30;94859.88;;;9.52;36.12
14393;BME280;7281;42.678;23.372;2023-04-05T11:41:57;94854.44;;;9.59;36.86
14393;BME280;7281;42.678;23.372;2023-04-05T11:44:24;94848.84;;;8.92;36.87
14393;BME280;7281;42.678;23.372;2023-04-05T11:46:54;94848.56;;;8.88;36.48
14393;BME280;7281;42.678;23.372;2023-04-05T11:49:21;94850.59;;;9.71;36.32
14393;BME280;7281;42.678;23.372;2023-04-05T11:51:52;94845.25;;;9.93;35.97
14393;BME280;7281;42.678;23.372;2023-04-05T11:56:55;94846.75;;;9.84;36.04
14393;BME280;7281;42.678;23.372;2023-04-05T11:59:29;94852.13;;;8.82;36.50
14393;BME280;7281;42.678;23.372;2023-04-05T12:01:59;94848.56;;;8.45;37.41
14393;BME280;7281;42.678;23.372;2023-04-05T12:04:26;94850.63;;;8.43;37.26
14393;BME280;7281;42.678;23.372;2023-04-05T12:07:12;94846.56;;;8.31;38.27
14393;BME280;7281;42.678;23.372;2023-04-05T12:12:24;94858.94;;;8.83;37.63
14393;BME280;7281;42.678;23.372;2023-04-05T12:14:50;94847.00;;;8.44;38.23
14393;BME280;7281;42.678;23.372;2023-04-05T12:17:17;94848.09;;;8.48;38.17
14393;BME280;7281;42.678;23.372;2023-04-05T12:19:44;94853.44;;;8.58;38.33
14393;BME280;7281;42.678;23.372;2023-04-05T12:22:11;94854.78;;;8.39;39.46
14393;BME280;7281;42.678;23.372;2023-04-05T12:24:38;94854.25;;;8.85;39.63
14393;BME280;7281;42.678;23.372;2023-04-05T12:27:05;94847.75;;;9.41;38.66
14393;BME280;7281;42.678;23.372;2023-04-05T12:29:32;94844.53;;;9.66;38.06
14393;BME280;7281;42.678;23.372;2023-04-05T12:31:58;94847.41;;;10.01;37.26
14393;BME280;7281;42.678;23.372;2023-04-05T12:34:26;94827.88;;;10.75;36.37
14393;BME280;7281;42.678;23.372;2023-04-05T12:36:53;94836.41;;;11.48;36.21
14393;BME280;7281;42.678;23.372;2023-04-05T12:39:20;94833.66;;;10.82;35.84
14393;BME280;7281;42.678;23.372;2023-04-05T12:41:57;94837.88;;;10.88;35.92
14393;BME280;7281;42.678;23.372;2023-04-05T12:44:28;94828.94;;;10.79;35.87
14393;BME280;7281;42.678;23.372;2023-04-05T12:47:01;94824.25;;;10.91;34.98
14393;BME280;7281;42.678;23.372;2023-04-05T12:49:29;94832.63;;;10.78;35.92
14393;BME280;7281;42.678;23.372;2023-04-05T12:52:02;94839.00;;;11.12;35.49
14393;BME280;7281;42.678;23.372;2023-04-05T12:54:29;94822.75;;;11.26;36.74
14393;BME280;7281;42.678;23.372;2023-04-05T12:56:57;94844.78;;;11.14;36.10
14393;BME280;7281;42.678;23.372;2023-04-05T12:59:24;94850.28;;;10.46;36.28
14393;BME280;7281;42.678;23.372;2023-04-05T13:01:50;94840.88;;;10.03;36.84
14393;BME280;7281;42.678;23.372;2023-04-05T13:04:17;94853.88;;;9.57;37.03
14393;BME280;7281;42.678;23.372;2023-04-05T13:06:44;94858.41;;;9.08;37.48
14393;BME280;7281;42.678;23.372;2023-04-05T13:09:13;94855.47;;;8.78;37.60
14393;BME280;7281;42.678;23.372;2023-04-05T13:11:40;94855.63;;;8.66;37.68
14393;BME280;7281;42.678;23.372;2023-04-05T13:14:06;94864.22;;;8.45;38.08
14393;BME280;7281;42.678;23.372;2023-04-05T13:16:33;94857.53;;;7.94;38.51
14393;BME280;7281;42.678;23.372;2023-04-05T13:19:01;94864.22;;;8.45;39.35
14393;BME280;7281;42.678;23.372;2023-04-05T13:21:27;94862.06;;;8.59;38.41
14393;BME280;7281;42.678;23.372;2023-04-05T13:23:54;94856.34;;;8.23;38.35
14393;BME280;7281;42.678;23.372;2023-04-05T13:26:21;94848.84;;;9.18;37.87
14393;BME280;7281;42.678;23.372;2023-04-05T13:28:48;94848.69;;;9.62;36.36
14393;BME280;7281;42.678;23.372;2023-04-05T13:31:16;94848.09;;;9.86;35.96
14393;BME280;7281;42.678;23.372;2023-04-05T13:33:43;94854.84;;;10.09;36.29
14393;BME280;7281;42.678;23.372;2023-04-05T13:36:09;94835.31;;;11.03;34.93
14393;BME280;7281;42.678;23.372;2023-04-05T13:38:38;94835.81;;;11.00;34.24
14393;BME280;7281;42.678;23.372;2023-04-05T13:41:05;94845.78;;;11.08;33.84
14393;BME280;7281;42.678;23.372;2023-04-05T13:43:32;94836.31;;;10.87;34.60
14393;BME280;7281;42.678;23.372;2023-04-05T13:45:58;94829.06;;;11.60;33.24
14393;BME280;7281;42.678;23.372;2023-04-05T13:48:25;94833.25;;;11.46;33.51
14393;BME280;7281;42.678;23.372;2023-04-05T13:50:52;94837.44;;;11.21;33.56
14393;BME280;7281;42.678;23.372;2023-04-05T13:53:18;94843.78;;;11.81;33.64
14393;BME280;7281;42.678;23.372;2023-04-05T13:55:45;94841.66;;;11.48;33.60